Terminal Aerodrome Forecast
Issued by NWS

Home | Current Version | Previous Version | Text Only | Print | Product List | Glossary On
Versions: 1 2 3 4 5 6 7 8 9 10 11 12 13 14 15 16 17 18 19 20 21
818
FTUS41 KCLE 301741
TAFFDY
TAF
KFDY 301741Z 3018/3118 09015G25KT P6SM OVC060
      TEMPO 3020/3024 2SM TSRA OVC035CB
     FM310000 08008KT 4SM BR OVC060
     FM310500 06004KT 3SM -TSRA BR SCT025CB OVC035
     FM311200 04004KT 1 1/2SM -SHRA BR OVC003
     FM311400 02005KT 2SM -DZ BR OVC003=

USA.gov is the U.S. government's official web portal to all federal, state and local government web resources and services.